Time;durP1;ratioP1;P1;durP2;ratioP2;P2;SDS_P1;SDS_P2;PMS_P1;PMS_P2;Temp;Humidity;BMP_temperature;BMP_pressure;BME280_temperature;BME280_humidity;BME280_pressure;Samples;Min_cycle;Max_cycle;Signal;HPM_P1;HPM_P2
2022/08/10 00:02:22;;;;;;;4.85;2.30;;;19.00;99.90;;;;;;5111899;28;20168;-72
2022/08/10 00:04:47;;;;;;;3.40;2.30;;;19.10;99.90;;;;;;5109828;28;20514;-72
2022/08/10 00:07:13;;;;;;;3.47;1.93;;;19.10;99.90;;;;;;5110993;28;20386;-72
2022/08/10 00:09:38;;;;;;;4.20;2.10;;;19.10;99.90;;;;;;5111312;28;20066;-73
2022/08/10 00:12:04;;;;;;;3.03;2.20;;;19.10;99.90;;;;;;5111643;28;20107;-72
2022/08/10 00:14:30;;;;;;;4.63;2.20;;;19.10;99.90;;;;;;5111219;28;20471;-72
2022/08/10 00:16:56;;;;;;;3.63;2.00;;;19.10;99.90;;;;;;5110757;28;20039;-72
2022/08/10 00:19:21;;;;;;;3.10;2.10;;;19.10;99.90;;;;;;5110903;28;20036;-73
2022/08/10 00:21:47;;;;;;;3.07;1.90;;;19.10;99.90;;;;;;5111254;28;20462;-72
2022/08/10 00:24:13;;;;;;;3.40;1.90;;;19.00;99.90;;;;;;5111068;28;20375;-72
2022/08/10 00:26:38;;;;;;;2.60;2.00;;;19.00;99.90;;;;;;5111034;28;20032;-72
2022/08/10 00:29:04;;;;;;;3.93;2.00;;;19.00;99.90;;;;;;5111001;28;20034;-72
2022/08/10 00:31:29;;;;;;;2.63;1.90;;;19.10;99.90;;;;;;5109863;28;20043;-71
2022/08/10 00:33:55;;;;;;;2.63;1.83;;;19.10;99.90;;;;;;5109415;28;20055;-72
2022/08/10 00:36:21;;;;;;;3.80;2.10;;;19.00;99.90;;;;;;5110482;28;20194;-72
2022/08/10 00:38:46;;;;;;;3.43;1.80;;;19.10;99.90;;;;;;5110985;28;20028;-72
2022/08/10 00:41:12;;;;;;;3.03;1.97;;;19.10;99.90;;;;;;5110809;28;20035;-72
2022/08/10 00:43:37;;;;;;;4.07;2.00;;;19.10;99.90;;;;;;5110834;28;20024;-72
2022/08/10 00:46:03;;;;;;;3.27;2.07;;;19.10;99.90;;;;;;5110378;28;20040;-71
2022/08/10 00:48:30;;;;;;;2.40;1.90;;;19.10;99.90;;;;;;5111215;28;20047;-72
2022/08/10 00:50:58;;;;;;;2.90;1.90;;;19.10;99.90;;;;;;5110653;28;20088;-72
2022/08/10 00:53:25;;;;;;;4.72;1.75;;;19.00;99.90;;;;;;5109617;28;20526;-73
2022/08/10 00:55:50;;;;;;;2.65;2.03;;;19.00;99.90;;;;;;5110281;28;20035;-72
2022/08/10 00:58:16;;;;;;;3.00;2.10;;;19.00;99.90;;;;;;5109738;28;20383;-73
2022/08/10 01:00:42;;;;;;;2.47;2.10;;;19.00;99.90;;;;;;5117169;28;20074;-72
2022/08/10 01:03:08;;;;;;;5.00;2.37;;;19.00;99.90;;;;;;5117705;27;20429;-72
2022/08/10 01:05:41;;;;;;;2.87;2.07;;;19.00;99.90;;;;;;5116910;28;20027;-72
2022/08/10 01:08:35;;;;;;;3.28;2.08;;;19.00;99.90;;;;;;5117052;27;20272;-72
2022/08/10 01:11:10;;;;;;;2.70;2.20;;;19.00;99.90;;;;;;5117126;27;20063;-72
2022/08/10 01:14:10;;;;;;;4.15;1.90;;;19.00;99.90;;;;;;5115972;28;20498;-72
2022/08/10 01:16:45;;;;;;;5.13;2.72;;;19.00;99.90;;;;;;5115447;28;20035;-72
2022/08/10 01:19:46;;;;;;;2.78;2.00;;;19.00;99.90;;;;;;5116799;28;20036;-72
2022/08/10 01:22:55;;;;;;;2.67;2.05;;;18.90;99.90;;;;;;5115927;28;20106;-72
2022/08/10 01:25:45;;;;;;;3.78;2.20;;;18.90;99.90;;;;;;5104164;28;20043;-72
2022/08/10 01:28:32;;;;;;;3.47;2.45;;;18.80;99.90;;;;;;5115880;28;20396;-72
2022/08/10 01:31:01;;;;;;;3.45;2.10;;;18.80;99.90;;;;;;5117310;27;20018;-72
2022/08/10 01:33:35;;;;;;;2.80;2.08;;;18.80;99.90;;;;;;5117130;27;20031;-72
2022/08/10 01:36:33;;;;;;;2.70;1.70;;;18.70;99.90;;;;;;5116637;27;20038;-72
2022/08/10 01:39:02;;;;;;;3.20;1.90;;;18.70;99.90;;;;;;5109002;28;20104;-72
2022/08/10 01:41:35;;;;;;;3.53;2.00;;;18.70;99.90;;;;;;5115921;28;20038;-72
2022/08/10 01:44:08;;;;;;;2.65;1.70;;;18.70;99.90;;;;;;5117274;27;20499;-72
2022/08/10 01:46:36;;;;;;;3.22;1.90;;;18.60;99.90;;;;;;5117004;27;20455;-71
2022/08/10 01:49:07;;;;;;;2.53;1.75;;;18.70;99.90;;;;;;5115804;28;20019;-72
2022/08/10 01:51:55;;;;;;;3.00;2.10;;;18.60;99.90;;;;;;5117354;27;20023;-71
2022/08/10 01:54:24;;;;;;;2.28;1.75;;;18.60;99.90;;;;;;5115836;28;20027;-71
2022/08/10 01:56:54;;;;;;;2.78;1.90;;;18.60;99.90;;;;;;5116728;27;20047;-71
2022/08/10 01:59:30;;;;;;;2.63;1.90;;;18.60;99.90;;;;;;5115664;28;20164;-72
2022/08/10 02:02:00;;;;;;;3.03;1.80;;;18.50;99.90;;;;;;5116852;27;20039;-71
2022/08/10 02:04:28;;;;;;;2.88;1.90;;;18.60;99.90;;;;;;5116241;27;20326;-71
2022/08/10 02:06:54;;;;;;;2.97;1.70;;;18.50;99.90;;;;;;5116838;27;20110;-71
2022/08/10 02:09:24;;;;;;;3.75;1.95;;;18.50;99.90;;;;;;5116482;27;20039;-71
2022/08/10 02:11:51;;;;;;;3.20;1.73;;;18.50;99.90;;;;;;5113510;27;20490;-71
2022/08/10 02:14:19;;;;;;;4.03;1.75;;;18.40;99.90;;;;;;5113478;28;20028;-72
2022/08/10 02:16:49;;;;;;;2.67;1.83;;;18.40;99.90;;;;;;5113405;28;20467;-71
2022/08/10 02:19:18;;;;;;;3.60;2.30;;;18.50;99.90;;;;;;5113546;28;20020;-71
2022/08/10 02:21:46;;;;;;;2.83;1.90;;;18.40;99.90;;;;;;5113527;28;20027;-71
2022/08/10 02:24:14;;;;;;;3.13;2.00;;;18.40;99.90;;;;;;5113195;28;20034;-71
2022/08/10 02:26:42;;;;;;;3.03;1.90;;;18.40;99.90;;;;;;5113467;28;20108;-71
2022/08/10 02:29:11;;;;;;;3.22;1.80;;;18.40;99.90;;;;;;5113099;28;20096;-72
2022/08/10 02:31:37;;;;;;;3.63;2.03;;;18.40;99.90;;;;;;5113402;28;20040;-72
2022/08/10 02:34:04;;;;;;;5.47;1.95;;;18.40;99.90;;;;;;5113110;28;20084;-71
2022/08/10 02:36:33;;;;;;;2.88;1.80;;;18.40;99.90;;;;;;5111734;28;20050;-71
2022/08/10 02:39:01;;;;;;;2.95;1.90;;;18.40;99.90;;;;;;5113244;27;20031;-72
2022/08/10 02:41:41;;;;;;;3.35;2.00;;;18.30;99.90;;;;;;5112007;28;20032;-72
2022/08/10 02:44:17;;;;;;;2.60;1.60;;;18.30;99.90;;;;;;5113051;28;20063;-73
2022/08/10 02:46:49;;;;;;;3.22;1.90;;;18.30;99.90;;;;;;5113245;28;20443;-71
2022/08/10 02:49:23;;;;;;;2.58;1.60;;;18.30;99.90;;;;;;5113069;28;20024;-71
2022/08/10 02:52:00;;;;;;;3.88;1.77;;;18.40;99.90;;;;;;5113150;28;20477;-71
2022/08/10 02:54:31;;;;;;;2.85;1.90;;;18.30;99.90;;;;;;5112751;28;20050;-72
2022/08/10 02:57:18;;;;;;;3.75;1.80;;;18.30;99.90;;;;;;5112890;28;20048;-71
2022/08/10 02:59:51;;;;;;;2.83;1.77;;;18.30;99.90;;;;;;5112894;28;20023;-71
2022/08/10 03:02:30;;;;;;;4.28;1.98;;;18.30;99.90;;;;;;5112580;28;20063;-72
2022/08/10 03:05:14;;;;;;;3.05;1.77;;;18.20;99.90;;;;;;5110692;28;20057;-72
2022/08/10 03:07:47;;;;;;;2.83;2.15;;;18.20;99.90;;;;;;5111011;28;20507;-72
2022/08/10 03:10:23;;;;;;;3.17;2.20;;;18.10;99.90;;;;;;5112378;28;20023;-72
2022/08/10 03:12:55;;;;;;;3.85;2.70;;;18.20;99.90;;;;;;5113111;28;20024;-72
2022/08/10 03:15:23;;;;;;;3.85;2.80;;;18.20;99.90;;;;;;5112302;28;20100;-72
2022/08/10 03:17:52;;;;;;;3.92;2.60;;;18.20;99.90;;;;;;5111055;28;20386;-72
2022/08/10 03:20:20;;;;;;;4.00;2.60;;;18.10;99.90;;;;;;5112276;28;20074;-72
2022/08/10 03:22:49;;;;;;;4.72;2.75;;;18.10;99.90;;;;;;5112360;28;20123;-72
2022/08/10 03:25:17;;;;;;;3.83;2.70;;;18.00;99.90;;;;;;5112172;28;20023;-72
2022/08/10 03:27:43;;;;;;;4.05;2.63;;;18.10;99.90;;;;;;5112627;28;20521;-72
2022/08/10 03:30:09;;;;;;;;;;;18.10;99.90;;;;;;5112300;28;20023;-72
2022/08/10 03:32:35;;;;;;;4.45;2.50;;;18.10;99.90;;;;;;5112114;28;20434;-72
2022/08/10 03:35:03;;;;;;;3.05;2.28;;;18.10;99.90;;;;;;5112439;28;20023;-72
2022/08/10 03:37:29;;;;;;;3.55;2.67;;;18.10;99.90;;;;;;5112344;28;20475;-71
2022/08/10 03:39:54;;;;;;;3.77;2.73;;;18.10;99.90;;;;;;5110561;28;20188;-72
2022/08/10 03:42:22;;;;;;;4.50;3.00;;;18.00;99.90;;;;;;5112411;28;20036;-71
2022/08/10 03:44:49;;;;;;;4.45;2.67;;;18.00;99.90;;;;;;5112080;28;20375;-71
2022/08/10 03:47:18;;;;;;;4.05;2.75;;;18.00;99.90;;;;;;5111744;28;20035;-72
2022/08/10 03:49:47;;;;;;;3.72;2.50;;;18.10;99.90;;;;;;5110959;28;20072;-72
2022/08/10 03:52:14;;;;;;;4.82;2.50;;;18.00;99.90;;;;;;5111966;28;20467;-73
2022/08/10 03:54:41;;;;;;;5.20;3.25;;;18.00;99.90;;;;;;5111504;28;20026;-72
2022/08/10 03:57:07;;;;;;;6.45;2.85;;;18.00;99.90;;;;;;5110149;28;20059;-72
2022/08/10 03:59:34;;;;;;;5.05;3.10;;;18.00;99.90;;;;;;5109924;28;20035;-72
2022/08/10 04:02:00;;;;;;;6.32;3.13;;;18.00;99.90;;;;;;5110465;28;20047;-72
2022/08/10 04:04:26;;;;;;;;;;;18.00;99.90;;;;;;5111772;28;20028;-72
2022/08/10 04:06:54;;;;;;;5.78;2.70;;;18.00;99.90;;;;;;5111577;28;20411;-71
2022/08/10 04:09:20;;;;;;;4.55;2.80;;;18.00;99.90;;;;;;5111602;28;20215;-71
2022/08/10 04:11:46;;;;;;;7.32;3.10;;;18.00;99.90;;;;;;5111711;28;20470;-71
2022/08/10 04:14:11;;;;;;;4.60;3.00;;;18.00;99.90;;;;;;5111301;28;20115;-72
2022/08/10 04:16:37;;;;;;;4.43;3.10;;;18.00;99.90;;;;;;5111385;28;20027;-72
2022/08/10 04:19:03;;;;;;;4.00;3.20;;;18.00;99.90;;;;;;5109418;28;20039;-72
2022/08/10 04:21:37;;;;;;;4.68;2.92;;;17.90;99.90;;;;;;5111405;28;20389;-71
2022/08/10 04:24:06;;;;;;;6.60;2.95;;;17.90;99.90;;;;;;5111370;28;20375;-73
2022/08/10 04:26:32;;;;;;;5.93;3.33;;;18.00;99.90;;;;;;5111346;28;20036;-71
2022/08/10 04:28:57;;;;;;;8.27;3.10;;;18.00;99.90;;;;;;5110679;28;20033;-72
2022/08/10 04:31:25;;;;;;;5.57;2.50;;;17.90;99.90;;;;;;5111130;28;20568;-72
2022/08/10 04:33:53;;;;;;;4.90;3.03;;;18.10;99.90;;;;;;5110777;28;20012;-72
2022/08/10 04:36:20;;;;;;;6.93;3.00;;;18.00;99.90;;;;;;5110837;28;20031;-71
2022/08/10 04:38:50;;;;;;;4.72;3.42;;;18.10;99.90;;;;;;5110894;28;20039;-72
2022/08/10 04:41:15;;;;;;;4.60;3.13;;;18.20;99.90;;;;;;5110807;28;20035;-72
2022/08/10 04:43:41;;;;;;;4.63;2.90;;;18.20;99.90;;;;;;5110882;28;20045;-72
2022/08/10 04:46:07;;;;;;;5.13;2.87;;;18.20;99.90;;;;;;5110909;28;20502;-72
2022/08/10 04:48:32;;;;;;;4.03;2.57;;;18.30;99.90;;;;;;5110313;28;20031;-72
2022/08/10 04:50:58;;;;;;;4.17;2.80;;;18.30;99.90;;;;;;5109622;28;20785;-72
2022/08/10 04:53:24;;;;;;;5.13;2.70;;;18.40;99.90;;;;;;5109207;28;20027;-72
2022/08/10 04:55:49;;;;;;;3.80;2.67;;;18.50;99.90;;;;;;5110603;28;20130;-72
2022/08/10 04:58:15;;;;;;;3.80;2.70;;;18.50;99.90;;;;;;5110362;28;20035;-72
2022/08/10 05:00:41;;;;;;;4.43;3.23;;;18.40;99.90;;;;;;5110663;28;20481;-72
2022/08/10 05:03:06;;;;;;;5.67;2.43;;;18.40;99.90;;;;;;5110774;28;20089;-72
2022/08/10 05:05:32;;;;;;;5.20;3.10;;;18.50;99.90;;;;;;5110592;28;20067;-72
2022/08/10 05:07:57;;;;;;;3.80;2.47;;;18.50;99.90;;;;;;5110976;28;20418;-72
2022/08/10 05:10:23;;;;;;;4.47;2.50;;;18.50;99.90;;;;;;5110769;28;20058;-72
2022/08/10 05:12:49;;;;;;;4.33;2.70;;;18.50;99.90;;;;;;5111375;28;20471;-73
2022/08/10 05:15:17;;;;;;;4.40;2.80;;;18.60;99.90;;;;;;5110874;28;20032;-73
2022/08/10 05:17:43;;;;;;;3.85;2.60;;;18.50;99.90;;;;;;5108704;28;20114;-72
2022/08/10 05:20:10;;;;;;;3.95;2.47;;;18.50;99.90;;;;;;5110614;28;20028;-73
2022/08/10 05:22:41;;;;;;;3.45;2.45;;;18.50;99.90;;;;;;5110842;28;20036;-71
2022/08/10 05:25:10;;;;;;;4.65;2.47;;;18.50;99.90;;;;;;5109251;28;20027;-71
2022/08/10 05:27:36;;;;;;;4.57;2.72;;;18.50;99.90;;;;;;5110520;28;20028;-71
2022/08/10 05:30:03;;;;;;;3.97;2.28;;;18.50;99.90;;;;;;5110909;28;20027;-72
2022/08/10 05:32:30;;;;;;;4.03;2.50;;;18.50;99.90;;;;;;5111069;28;20051;-73
2022/08/10 05:34:56;;;;;;;4.45;2.22;;;18.50;99.90;;;;;;5110772;28;20024;-72
2022/08/10 05:37:23;;;;;;;3.40;2.53;;;18.60;99.90;;;;;;5110714;28;20100;-71
2022/08/10 05:39:49;;;;;;;3.53;2.28;;;18.60;99.90;;;;;;5111190;28;20739;-71
2022/08/10 05:42:16;;;;;;;3.93;2.57;;;18.50;99.90;;;;;;5110367;28;20079;-72
2022/08/10 05:44:43;;;;;;;7.55;5.70;;;18.50;99.90;;;;;;5110274;28;20023;-73
2022/08/10 05:47:08;;;;;;;4.32;2.80;;;18.70;99.90;;;;;;5112334;28;20059;-72
2022/08/10 05:49:34;;;;;;;4.30;2.70;;;18.70;99.90;;;;;;5114267;28;20082;-72
2022/08/10 05:52:00;;;;;;;3.97;2.57;;;18.60;99.90;;;;;;5114079;28;20115;-72
2022/08/10 05:54:26;;;;;;;3.80;2.20;;;18.70;99.90;;;;;;5114199;28;20027;-72
2022/08/10 05:56:53;;;;;;;5.13;2.40;;;18.70;99.90;;;;;;5113555;28;20524;-73
2022/08/10 05:59:20;;;;;;;5.20;2.67;;;18.80;99.90;;;;;;5113917;27;20479;-73
2022/08/10 06:01:48;;;;;;;7.93;3.67;;;18.90;99.90;;;;;;5112315;28;20088;-73
2022/08/10 06:04:28;;;;;;;5.82;3.13;;;18.90;99.90;;;;;;5114022;28;20038;-73
2022/08/10 06:06:54;;;;;;;7.70;3.15;;;19.00;99.90;;;;;;5113933;28;20050;-73
2022/08/10 06:09:22;;;;;;;4.05;2.78;;;19.10;99.90;;;;;;5113974;28;20415;-73
2022/08/10 06:11:50;;;;;;;5.20;3.25;;;19.20;99.90;;;;;;5114315;28;20358;-73
2022/08/10 06:17:02;;;;;;;5.47;3.30;;;19.20;99.90;;;;;;5114227;28;20047;-73
2022/08/10 06:19:29;;;;;;;5.10;3.40;;;19.20;99.90;;;;;;5112142;28;20518;-73
2022/08/10 06:21:56;;;;;;;5.20;3.22;;;19.20;99.90;;;;;;5113444;28;20023;-72
2022/08/10 06:24:24;;;;;;;4.97;3.50;;;19.10;99.90;;;;;;5112372;28;20031;-72
2022/08/10 06:26:50;;;;;;;5.13;3.38;;;19.10;99.90;;;;;;5113066;28;20039;-72
2022/08/10 06:29:18;;;;;;;4.80;3.40;;;19.10;99.90;;;;;;5113319;28;20372;-72
2022/08/10 06:31:48;;;;;;;4.70;3.38;;;19.10;99.90;;;;;;5113288;28;20031;-72
2022/08/10 06:34:19;;;;;;;4.95;3.28;;;19.10;99.90;;;;;;5113306;28;20061;-73
2022/08/10 06:36:46;;;;;;;6.82;3.60;;;19.10;99.90;;;;;;5112808;27;20032;-72
2022/08/10 06:39:11;;;;;;;5.40;3.50;;;19.10;99.90;;;;;;5113324;28;20364;-72
2022/08/10 06:41:45;;;;;;;4.93;3.43;;;19.00;99.90;;;;;;5113474;28;20313;-72
2022/08/10 06:44:15;;;;;;;5.47;3.40;;;19.00;99.90;;;;;;5113508;28;20023;-71
2022/08/10 06:46:47;;;;;;;5.00;3.90;;;18.90;99.90;;;;;;5113002;28;20108;-71
2022/08/10 06:49:15;;;;;;;5.07;3.38;;;18.90;99.90;;;;;;5111554;28;20031;-72
2022/08/10 06:51:43;;;;;;;5.18;3.45;;;18.90;99.90;;;;;;5112919;28;20494;-72
2022/08/10 06:54:11;;;;;;;6.03;3.38;;;18.90;99.90;;;;;;5111488;28;20066;-71
2022/08/10 06:56:43;;;;;;;4.65;3.20;;;18.90;99.90;;;;;;5112447;28;20082;-72
2022/08/10 06:59:29;;;;;;;6.13;3.83;;;19.00;99.90;;;;;;5113067;28;20487;-72
2022/08/10 07:02:08;;;;;;;6.07;4.00;;;19.00;99.90;;;;;;5112674;28;20032;-72
2022/08/10 07:04:47;;;;;;;8.35;3.70;;;19.10;99.90;;;;;;5112772;28;20028;-73
2022/08/10 07:07:19;;;;;;;6.78;3.20;;;18.90;99.90;;;;;;5112372;28;20035;-73
2022/08/10 07:09:45;;;;;;;5.93;3.10;;;19.10;99.90;;;;;;5110362;28;20038;-72
2022/08/10 07:12:13;;;;;;;4.30;2.83;;;19.20;99.90;;;;;;5112933;28;20030;-72
2022/08/10 07:14:43;;;;;;;5.72;2.83;;;19.20;99.90;;;;;;5112424;28;20479;-72
2022/08/10 07:17:16;;;;;;;5.03;3.53;;;19.20;99.90;;;;;;5111899;28;20107;-73
2022/08/10 07:19:43;;;;;;;8.02;3.33;;;19.20;99.90;;;;;;5111188;28;20032;-71
2022/08/10 07:22:10;;;;;;;4.93;3.05;;;19.20;99.90;;;;;;5111953;28;20107;-72
2022/08/10 07:24:37;;;;;;;6.32;3.70;;;19.20;99.90;;;;;;5112519;28;20119;-72
2022/08/10 07:27:05;;;;;;;5.15;3.40;;;19.20;99.90;;;;;;5104062;28;20605;-69
2022/08/10 07:29:33;;;;;;;5.10;3.42;;;19.20;99.90;;;;;;5098695;28;20020;-69
2022/08/10 07:31:59;;;;;;;5.57;3.70;;;19.20;99.90;;;;;;5103098;28;20023;-69
2022/08/10 07:34:26;;;;;;;5.53;3.45;;;19.20;99.90;;;;;;5099966;28;20446;-69
2022/08/10 07:36:54;;;;;;;5.38;3.13;;;19.20;99.90;;;;;;5100343;28;20396;-69
2022/08/10 07:39:21;;;;;;;5.43;3.13;;;19.30;99.90;;;;;;5106372;28;20378;-69
2022/08/10 07:41:49;;;;;;;4.38;2.92;;;19.30;99.90;;;;;;5098753;28;20322;-68
2022/08/10 07:44:17;;;;;;;5.22;3.10;;;19.40;99.90;;;;;;5097992;28;20028;-68
2022/08/10 07:46:47;;;;;;;6.63;3.50;;;19.50;99.90;;;;;;5103403;28;20042;-68
2022/08/10 07:49:18;;;;;;;8.05;3.38;;;19.50;99.90;;;;;;5102589;28;20258;-72
2022/08/10 07:51:44;;;;;;;4.78;3.08;;;19.70;99.90;;;;;;5097705;28;20055;-68
2022/08/10 07:54:14;;;;;;;3.93;2.73;;;19.60;99.90;;;;;;5103957;28;20071;-69
2022/08/10 07:56:44;;;;;;;4.38;2.90;;;19.60;99.90;;;;;;5102052;28;20105;-69
2022/08/10 07:59:14;;;;;;;5.78;2.90;;;19.60;99.90;;;;;;5100351;28;20480;-69
2022/08/10 08:01:45;;;;;;;6.00;2.97;;;19.70;99.90;;;;;;5102583;28;20352;-69
2022/08/10 08:04:13;;;;;;;4.85;3.05;;;19.70;99.90;;;;;;5099794;28;20173;-69
2022/08/10 08:06:41;;;;;;;5.40;3.00;;;19.70;99.90;;;;;;5095956;28;20028;-70
2022/08/10 08:09:07;;;;;;;5.47;3.30;;;19.80;99.90;;;;;;5108473;28;20630;-69
2022/08/10 08:11:35;;;;;;;5.55;2.97;;;19.80;99.90;;;;;;5109999;28;20336;-69
2022/08/10 08:14:03;;;;;;;4.13;2.80;;;19.80;99.90;;;;;;5110067;28;20039;-69
2022/08/10 08:16:29;;;;;;;4.60;2.90;;;19.80;99.90;;;;;;5111293;28;20531;-69
2022/08/10 08:18:55;;;;;;;;;;;19.80;99.90;;;;;;5101727;28;20032;-68
2022/08/10 08:21:22;;;;;;;4.25;2.95;;;19.80;99.90;;;;;;5111025;28;20292;-69
2022/08/10 08:23:50;;;;;;;5.00;2.75;;;19.80;99.90;;;;;;5109216;28;20047;-69
2022/08/10 08:26:17;;;;;;;4.05;2.80;;;19.80;99.90;;;;;;5109303;28;20060;-69
2022/08/10 08:28:44;;;;;;;4.70;2.60;;;19.90;99.90;;;;;;5100190;28;20036;-69
2022/08/10 08:31:12;;;;;;;4.15;2.70;;;19.90;99.90;;;;;;5098730;28;20020;-70
2022/08/10 08:33:40;;;;;;;4.45;3.05;;;19.90;99.90;;;;;;5107861;28;20055;-69
2022/08/10 08:36:06;;;;;;;5.38;2.85;;;19.90;99.90;;;;;;5110069;28;20031;-68
2022/08/10 08:38:34;;;;;;;6.93;3.40;;;19.80;99.90;;;;;;5110483;28;20043;-69
2022/08/10 08:41:18;;;;;;;5.45;3.05;;;19.80;99.90;;;;;;5109795;28;20028;-69
2022/08/10 08:44:16;;;;;;;4.70;2.60;;;19.80;99.90;;;;;;5102653;28;20036;-69
2022/08/10 08:47:20;;;;;;;5.88;3.10;;;19.80;99.90;;;;;;5092439;28;20341;-69
2022/08/10 08:50:08;;;;;;;4.32;3.10;;;19.90;99.90;;;;;;5109135;28;20031;-69
2022/08/10 08:53:01;;;;;;;5.10;3.20;;;20.00;99.90;;;;;;5110370;28;20379;-69
2022/08/10 08:55:49;;;;;;;5.57;3.50;;;20.00;99.90;;;;;;5108940;28;20127;-69
2022/08/10 08:58:42;;;;;;;4.43;2.88;;;20.00;99.90;;;;;;5094518;28;20027;-69
2022/08/10 09:01:49;;;;;;;5.93;2.85;;;20.00;99.90;;;;;;5089780;28;20028;-69
2022/08/10 09:04:36;;;;;;;5.45;2.88;;;20.00;99.90;;;;;;5089733;28;20172;-69
2022/08/10 09:07:26;;;;;;;5.22;3.28;;;20.10;99.90;;;;;;5108635;28;20027;-69
2022/08/10 09:10:14;;;;;;;6.18;3.58;;;20.10;99.90;;;;;;5109326;28;20521;-69
2022/08/10 09:13:10;;;;;;;5.00;3.70;;;20.20;99.90;;;;;;5095511;28;20028;-69
2022/08/10 09:15:59;;;;;;;5.95;3.50;;;20.20;99.90;;;;;;5078121;28;20036;-68
2022/08/10 09:18:32;;;;;;;4.68;3.38;;;20.30;99.90;;;;;;5102224;28;20063;-68
2022/08/10 09:21:08;;;;;;;6.13;3.78;;;20.40;99.90;;;;;;5112156;28;20038;-69
2022/08/10 09:23:44;;;;;;;5.15;3.17;;;20.60;99.90;;;;;;5114115;28;20352;-68
2022/08/10 09:26:21;;;;;;;5.40;3.55;;;20.70;99.90;;;;;;5106508;28;20341;-68
2022/08/10 09:28:50;;;;;;;;;;;20.90;99.90;;;;;;5103984;28;20028;-69
2022/08/10 09:31:21;;;;;;;5.55;3.80;;;21.00;99.90;;;;;;5104173;28;19912;-69
2022/08/10 09:33:59;;;;;;;7.10;3.92;;;21.10;99.90;;;;;;5111808;28;20034;-68
2022/08/10 09:36:41;;;;;;;5.72;4.00;;;21.10;99.90;;;;;;5114693;28;20551;-68
2022/08/10 09:39:22;;;;;;;5.20;4.00;;;21.10;99.90;;;;;;5113077;28;20042;-69
2022/08/10 09:41:57;;;;;;;4.88;3.40;;;21.10;99.90;;;;;;5114013;28;20046;-68
2022/08/10 09:44:46;;;;;;;6.78;4.07;;;21.20;99.90;;;;;;5113945;28;20042;-69
2022/08/10 09:47:31;;;;;;;5.05;3.67;;;21.20;99.90;;;;;;5111477;28;20028;-69
2022/08/10 09:50:11;;;;;;;5.97;3.67;;;21.20;99.90;;;;;;5112628;28;20031;-68
2022/08/10 09:53:03;;;;;;;5.43;3.95;;;21.20;99.90;;;;;;5113555;28;20028;-68
2022/08/10 09:56:06;;;;;;;6.60;4.57;;;21.20;99.90;;;;;;5111716;27;20096;-68
2022/08/10 09:58:44;;;;;;;7.82;4.22;;;21.20;99.90;;;;;;5113692;28;20366;-69
2022/08/10 10:01:36;;;;;;;6.38;3.95;;;21.20;99.90;;;;;;5113711;28;20028;-69
2022/08/10 10:04:23;;;;;;;4.40;3.13;;;21.30;99.90;;;;;;5113696;28;20387;-69
2022/08/10 10:06:55;;;;;;;4.80;3.13;;;21.40;99.90;;;;;;5109895;28;20362;-69
2022/08/10 10:09:41;;;;;;;7.10;3.90;;;21.40;99.90;;;;;;5105206;28;20023;-69
2022/08/10 10:12:47;;;;;;;5.18;3.70;;;21.30;99.90;;;;;;5113302;27;20035;-69
2022/08/10 10:15:44;;;;;;;7.40;3.72;;;21.30;99.90;;;;;;5112780;28;20447;-69
2022/08/10 10:18:28;;;;;;;5.63;4.03;;;21.30;99.90;;;;;;5128758;27;20031;-68
2022/08/10 10:21:09;;;;;;;6.15;4.30;;;21.30;99.90;;;;;;5112906;28;20524;-69
2022/08/10 10:24:14;;;;;;;7.53;4.53;;;21.30;99.90;;;;;;5104508;28;20024;-69
2022/08/10 10:26:55;;;;;;;5.28;3.83;;;21.20;99.90;;;;;;5111904;28;20066;-69
2022/08/10 10:29:34;;;;;;;5.30;4.15;;;21.30;99.90;;;;;;5113140;28;20106;-69
2022/08/10 10:32:24;;;;;;;5.65;4.10;;;21.30;99.90;;;;;;5112417;28;20042;-67
2022/08/10 10:34:55;;;;;;;5.88;4.15;;;21.40;99.90;;;;;;5112991;28;20048;-68
2022/08/10 10:37:23;;;;;;;5.63;3.92;;;21.50;99.90;;;;;;5113685;28;20092;-68
2022/08/10 10:39:52;;;;;;;5.28;3.83;;;21.60;99.90;;;;;;5112843;28;20024;-68
2022/08/10 10:42:35;;;;;;;5.65;4.03;;;21.70;99.90;;;;;;5112625;28;20319;-69
2022/08/10 10:45:19;;;;;;;6.57;4.47;;;21.80;99.90;;;;;;5111228;28;20035;-65
2022/08/10 10:48:18;;;;;;;6.28;4.50;;;21.80;99.90;;;;;;5113423;28;20032;-64
2022/08/10 10:51:01;;;;;;;5.15;3.97;;;21.80;99.90;;;;;;5112381;28;20046;-64
2022/08/10 10:53:38;;;;;;;5.97;3.80;;;22.10;99.90;;;;;;5101189;28;20135;-63
2022/08/10 10:56:32;;;;;;;6.22;4.13;;;22.20;99.90;;;;;;5105175;28;20039;-65
2022/08/10 10:59:04;;;;;;;6.82;4.10;;;22.20;99.90;;;;;;5111919;28;20028;-64
2022/08/10 11:02:17;;;;;;;5.30;3.63;;;22.20;99.90;;;;;;5104219;28;20353;-63
2022/08/10 11:04:54;;;;;;;6.63;3.95;;;22.10;99.90;;;;;;5101021;28;20055;-66
2022/08/10 11:07:26;;;;;;;6.53;3.80;;;22.10;99.90;;;;;;5107393;28;20597;-64
2022/08/10 11:09:56;;;;;;;4.88;3.45;;;21.90;99.90;;;;;;5110673;28;20426;-67
2022/08/10 11:12:45;;;;;;;5.13;3.83;;;21.80;99.90;;;;;;5109481;28;20023;-65
2022/08/10 11:15:32;;;;;;;6.25;3.78;;;21.70;99.90;;;;;;5110251;28;20696;-65
2022/08/10 11:18:08;;;;;;;6.15;3.38;;;21.60;99.90;;;;;;5110309;28;20024;-64
2022/08/10 11:20:50;;;;;;;4.78;3.45;;;21.60;99.90;;;;;;5111498;27;20498;-65
2022/08/10 11:23:24;;;;;;;6.80;3.75;;;21.60;99.90;;;;;;5100376;28;20125;-65
2022/08/10 11:26:01;;;;;;;5.20;3.78;;;21.60;99.90;;;;;;5094173;28;20030;-65
2022/08/10 11:28:39;;;;;;;5.68;3.67;;;21.60;99.90;;;;;;5105253;28;20391;-66
2022/08/10 11:31:20;;;;;;;5.10;3.55;;;21.60;99.90;;;;;;5111649;28;20038;-66
2022/08/10 11:33:45;;;;;;;5.47;3.30;;;21.60;99.90;;;;;;5111615;28;20023;-64
2022/08/10 11:36:31;;;;;;;5.97;3.50;;;21.60;99.90;;;;;;5110299;28;20085;-64
2022/08/10 11:39:01;;;;;;;8.25;3.35;;;21.60;99.90;;;;;;5111898;28;20422;-64
2022/08/10 11:42:05;;;;;;;6.40;3.42;;;21.60;99.90;;;;;;5109665;28;20444;-63
2022/08/10 11:44:46;;;;;;;5.47;3.30;;;21.60;99.90;;;;;;5109563;28;20043;-63
2022/08/10 11:47:21;;;;;;;5.05;3.70;;;21.60;99.90;;;;;;5111333;28;20085;-64
2022/08/10 11:50:20;;;;;;;4.80;3.45;;;21.60;99.90;;;;;;5110015;28;20119;-65
2022/08/10 11:53:19;;;;;;;4.32;3.05;;;21.70;99.90;;;;;;5090321;28;20027;-64
2022/08/10 11:55:53;;;;;;;6.30;4.22;;;21.80;99.90;;;;;;5085433;28;20491;-64
2022/08/10 12:01:09;;;;;;;5.50;3.40;;;21.90;99.90;;;;;;5104325;28;20493;-64
2022/08/10 12:03:37;;;;;;;5.20;3.22;;;22.00;99.90;;;;;;5110774;28;20071;-64
2022/08/10 12:06:12;;;;;;;5.05;3.50;;;22.10;99.90;;;;;;5110744;27;20055;-64
2022/08/10 12:08:41;;;;;;;4.00;2.75;;;22.10;99.90;;;;;;5099246;28;20034;-66
2022/08/10 12:11:09;;;;;;;4.13;3.03;;;22.00;99.90;;;;;;5101435;28;20024;-66
2022/08/10 12:13:56;;;;;;;3.97;2.85;;;22.00;99.90;;;;;;5099026;28;20103;-65
2022/08/10 12:16:25;;;;;;;4.18;2.78;;;22.00;99.90;;;;;;5094353;28;20055;-65
2022/08/10 12:19:06;;;;;;;4.07;2.97;;;22.00;99.90;;;;;;5090885;28;20415;-66
2022/08/10 12:21:46;;;;;;;4.55;2.90;;;21.90;99.90;;;;;;5108029;28;20032;-64
2022/08/10 12:24:33;;;;;;;3.88;2.60;;;22.00;99.90;;;;;;5102064;28;20502;-64
2022/08/10 12:27:08;;;;;;;3.33;2.45;;;22.00;99.90;;;;;;5097529;28;20032;-65
2022/08/10 12:29:54;;;;;;;4.70;2.45;;;22.00;99.90;;;;;;5101123;28;20558;-67
2022/08/10 12:32:41;;;;;;;4.10;2.80;;;22.00;99.90;;;;;;5098401;28;20035;-66
2022/08/10 12:35:31;;;;;;;6.65;2.85;;;22.00;99.90;;;;;;5090597;28;20092;-64
2022/08/10 12:38:12;;;;;;;7.25;2.90;;;21.90;99.90;;;;;;5089008;28;20116;-64
2022/08/10 12:40:58;;;;;;;4.07;2.55;;;21.90;99.90;;;;;;5105996;28;20036;-64
2022/08/10 12:44:07;;;;;;;4.13;2.72;;;22.00;99.90;;;;;;5110269;28;20039;-64
2022/08/10 12:46:56;;;;;;;4.20;2.78;;;22.00;99.90;;;;;;5102884;28;20126;-66
2022/08/10 12:49:36;;;;;;;3.72;2.58;;;22.00;99.90;;;;;;5090749;28;20097;-67
2022/08/10 12:52:08;;;;;;;6.53;2.85;;;22.00;99.90;;;;;;5109959;28;20648;-65
2022/08/10 12:54:35;;;;;;;3.80;2.50;;;22.00;99.90;;;;;;5105608;28;20031;-67
2022/08/10 12:57:09;;;;;;;3.47;2.50;;;22.00;99.90;;;;;;5099620;28;20525;-65
2022/08/10 12:59:57;;;;;;;3.88;2.60;;;22.00;99.90;;;;;;5097737;28;20035;-66
2022/08/10 13:02:28;;;;;;;4.07;2.65;;;22.00;99.90;;;;;;5098781;28;20062;-65
2022/08/10 13:04:57;;;;;;;4.10;2.50;;;22.00;99.90;;;;;;5094347;28;20036;-65
2022/08/10 13:07:31;;;;;;;4.43;3.00;;;21.90;99.90;;;;;;5085621;28;20036;-69
2022/08/10 13:10:12;;;;;;;5.13;2.65;;;22.00;99.90;;;;;;5101314;28;20031;-70
2022/08/10 13:12:44;;;;;;;3.70;2.67;;;22.00;99.90;;;;;;5109000;28;20028;-69
2022/08/10 13:15:21;;;;;;;5.00;2.78;;;22.00;99.90;;;;;;5109558;28;20384;-70
2022/08/10 13:17:51;;;;;;;5.47;2.60;;;22.00;99.90;;;;;;5110183;28;20522;-68
2022/08/10 13:20:26;;;;;;;4.35;2.80;;;22.10;99.90;;;;;;5109257;28;20028;-68
2022/08/10 13:22:56;;;;;;;4.25;2.67;;;22.10;99.90;;;;;;5109858;28;20059;-69
2022/08/10 13:25:30;;;;;;;4.60;3.10;;;22.10;99.90;;;;;;5109995;28;20465;-69
2022/08/10 13:28:00;;;;;;;4.00;2.72;;;22.10;99.90;;;;;;5110319;28;20402;-70